UAE40J OMDB-HAAB
Flight info
| Callsign | UAE40J |
|---|---|
| Flight time | 4h 7m |
| Altitude | 34000 |
| Route | ANVIX R401 GIDIS G783 ELUDA/N0484F360 G783 UKRAG/N0483F350 L710 KUKDI/N0485F360 B400 NODMA L702 ULALI T701 TORBA UB535 LAKBE LAKBE1A |
| Aircraft | B77W/H-SDE1E2E3FGHIJ2J3J4J5M1RWXY/LB1D1 |
Departure
| Time | 2026-04-25 09:44 |
|---|---|
| Airport | Dubai International Airport (OMDB) |
Arrival
| Time | 2026-04-25 13:51 |
|---|---|
| Airport | Addis Ababa Bole International Airport (HAAB) |
| Time | Latitude | Longitude | Altitude | Speed | Heading |
|---|---|---|---|---|---|
| 2026-04-25 09:01 | 25.25053 | 55.35988 | 27 ft | 0 kts | 211° |
| 2026-04-25 09:21 | 25.25064 | 55.35995 | 27 ft | 2 kts | 211° |
| 2026-04-25 09:22 | 25.25077 | 55.36004 | 27 ft | 2 kts | 211° |
| 2026-04-25 09:22 | 25.25085 | 55.36009 | 27 ft | 1 kts | 211° |
| 2026-04-25 09:22 | 25.25099 | 55.36017 | 27 ft | 2 kts | 195° |
| 2026-04-25 09:22 | 25.25114 | 55.36019 | 27 ft | 2 kts | 178° |
| 2026-04-25 09:23 | 25.25128 | 55.36017 | 27 ft | 2 kts | 163° |
| 2026-04-25 09:23 | 25.25142 | 55.36010 | 27 ft | 2 kts | 148° |
| 2026-04-25 09:23 | 25.25154 | 55.36000 | 27 ft | 2 kts | 133° |
| 2026-04-25 09:23 | 25.25161 | 55.35991 | 27 ft | 0 kts | 121° |
| 2026-04-25 09:24 | 25.25162 | 55.35988 | 27 ft | 0 kts | 120° |
| 2026-04-25 09:24 | 25.25162 | 55.35989 | 27 ft | 0 kts | 120° |
| 2026-04-25 09:27 | 25.25158 | 55.35996 | 27 ft | 3 kts | 120° |
| 2026-04-25 09:27 | 25.25139 | 55.36032 | 27 ft | 4 kts | 117° |
| 2026-04-25 09:27 | 25.25138 | 55.36071 | 27 ft | 6 kts | 60° |
| 2026-04-25 09:28 | 25.25183 | 55.36103 | 27 ft | 7 kts | 13° |
| 2026-04-25 09:28 | 25.25208 | 55.36090 | 27 ft | 0 kts | 302° |
| 2026-04-25 09:30 | 25.25209 | 55.36089 | 27 ft | 1 kts | 302° |
| 2026-04-25 09:30 | 25.25225 | 55.36060 | 27 ft | 7 kts | 302° |
| 2026-04-25 09:31 | 25.25261 | 55.35995 | 27 ft | 12 kts | 301° |
| 2026-04-25 09:31 | 25.25313 | 55.35901 | 27 ft | 14 kts | 301° |
| 2026-04-25 09:31 | 25.25365 | 55.35807 | 27 ft | 15 kts | 301° |
| 2026-04-25 09:31 | 25.25423 | 55.35702 | 27 ft | 17 kts | 301° |
| 2026-04-25 09:32 | 25.25492 | 55.35580 | 27 ft | 20 kts | 301° |
| 2026-04-25 09:32 | 25.25569 | 55.35440 | 27 ft | 22 kts | 301° |
| 2026-04-25 09:32 | 25.25652 | 55.35290 | 27 ft | 19 kts | 301° |
| 2026-04-25 09:32 | 25.25700 | 55.35210 | 27 ft | 8 kts | 320° |
| 2026-04-25 09:33 | 25.25757 | 55.35213 | 27 ft | 10 kts | 25° |
| 2026-04-25 09:33 | 25.25834 | 55.35263 | 27 ft | 14 kts | 31° |
| 2026-04-25 09:33 | 25.25924 | 55.35323 | 27 ft | 11 kts | 34° |
| 2026-04-25 09:33 | 25.25962 | 55.35362 | 27 ft | 3 kts | 53° |
| 2026-04-25 09:34 | 25.25966 | 55.35369 | 27 ft | 0 kts | 57° |
| 2026-04-25 09:34 | 25.25968 | 55.35372 | 27 ft | 1 kts | 57° |
| 2026-04-25 09:35 | 25.25981 | 55.35399 | 27 ft | 6 kts | 65° |
| 2026-04-25 09:35 | 25.25997 | 55.35469 | 27 ft | 12 kts | 86° |
| 2026-04-25 09:35 | 25.25963 | 55.35580 | 27 ft | 18 kts | 121° |
| 2026-04-25 09:35 | 25.25884 | 55.35724 | 27 ft | 25 kts | 122° |
| 2026-04-25 09:36 | 25.25781 | 55.35908 | 27 ft | 29 kts | 121° |
| 2026-04-25 09:36 | 25.25675 | 55.36098 | 29 ft | 28 kts | 121° |
| 2026-04-25 09:36 | 25.25569 | 55.36290 | 29 ft | 29 kts | 121° |
| 2026-04-25 09:36 | 25.25460 | 55.36483 | 31 ft | 29 kts | 121° |
| 2026-04-25 09:37 | 25.25354 | 55.36676 | 31 ft | 29 kts | 121° |
| 2026-04-25 09:37 | 25.25249 | 55.36866 | 33 ft | 28 kts | 121° |
| 2026-04-25 09:37 | 25.25145 | 55.37053 | 35 ft | 28 kts | 121° |
| 2026-04-25 09:37 | 25.25044 | 55.37236 | 37 ft | 27 kts | 121° |
| 2026-04-25 09:38 | 25.24943 | 55.37418 | 39 ft | 27 kts | 121° |
| 2026-04-25 09:38 | 25.24844 | 55.37597 | 41 ft | 27 kts | 121° |
| 2026-04-25 09:38 | 25.24748 | 55.37772 | 42 ft | 25 kts | 121° |
| 2026-04-25 09:38 | 25.24675 | 55.37901 | 43 ft | 11 kts | 118° |
| 2026-04-25 09:39 | 25.24674 | 55.37952 | 43 ft | 5 kts | 54° |
| 2026-04-25 09:39 | 25.24681 | 55.37961 | 43 ft | 0 kts | 41° |
| 2026-04-25 09:40 | 25.24684 | 55.37963 | 43 ft | 0 kts | 38° |
| 2026-04-25 09:41 | 25.24689 | 55.37967 | 43 ft | 1 kts | 33° |
| 2026-04-25 09:42 | 25.24710 | 55.37981 | 43 ft | 5 kts | 31° |
| 2026-04-25 09:42 | 25.24760 | 55.38014 | 43 ft | 9 kts | 31° |
| 2026-04-25 09:42 | 25.24797 | 55.38026 | 43 ft | 5 kts | 351° |
| 2026-04-25 09:42 | 25.24825 | 55.37998 | 43 ft | 4 kts | 298° |
| 2026-04-25 09:43 | 25.24826 | 55.37996 | 43 ft | 0 kts | 298° |
| 2026-04-25 09:43 | 25.24846 | 55.37957 | 43 ft | 21 kts | 299° |
| 2026-04-25 09:43 | 25.25049 | 55.37592 | 41 ft | 89 kts | 301° |
| 2026-04-25 09:43 | 25.25483 | 55.36805 | 35 ft | 148 kts | 301° |
| 2026-04-25 09:44 | 25.26079 | 55.35719 | 285 ft | 173 kts | 301° |
| 2026-04-25 09:44 | 25.26715 | 55.34557 | 856 ft | 183 kts | 301° |
| 2026-04-25 09:44 | 25.27376 | 55.33374 | 1488 ft | 185 kts | 301° |
| 2026-04-25 09:44 | 25.28069 | 55.32130 | 1890 ft | 193 kts | 301° |
| 2026-04-25 09:45 | 25.28760 | 55.30873 | 2400 ft | 194 kts | 296° |
| 2026-04-25 09:45 | 25.29125 | 55.29427 | 2844 ft | 198 kts | 272° |
| 2026-04-25 09:45 | 25.28912 | 55.27932 | 3304 ft | 201 kts | 249° |
| 2026-04-25 09:45 | 25.28324 | 55.26532 | 3808 ft | 202 kts | 245° |
| 2026-04-25 09:46 | 25.27714 | 55.25129 | 4304 ft | 203 kts | 246° |
| 2026-04-25 09:46 | 25.27110 | 55.23713 | 4805 ft | 204 kts | 246° |
| 2026-04-25 09:46 | 25.26506 | 55.22290 | 5301 ft | 206 kts | 246° |
| 2026-04-25 09:46 | 25.25897 | 55.20856 | 5738 ft | 210 kts | 246° |
| 2026-04-25 09:47 | 25.25253 | 55.19339 | 5966 ft | 226 kts | 246° |
| 2026-04-25 09:47 | 25.24351 | 55.17860 | 6227 ft | 241 kts | 224° |
| 2026-04-25 09:47 | 25.22890 | 55.16945 | 6668 ft | 248 kts | 197° |
| 2026-04-25 09:47 | 25.21120 | 55.16775 | 6974 ft | 261 kts | 179° |
| 2026-04-25 09:48 | 25.19327 | 55.17168 | 7433 ft | 266 kts | 156° |
| 2026-04-25 09:48 | 25.17869 | 55.18421 | 7857 ft | 273 kts | 129° |
| 2026-04-25 09:48 | 25.16899 | 55.20251 | 8295 ft | 277 kts | 117° |
| 2026-04-25 09:48 | 25.16047 | 55.22139 | 8818 ft | 277 kts | 117° |
| 2026-04-25 09:49 | 25.15173 | 55.24018 | 9320 ft | 279 kts | 118° |
| 2026-04-25 09:49 | 25.14268 | 55.25917 | 9831 ft | 280 kts | 118° |
| 2026-04-25 09:49 | 25.13353 | 55.27824 | 10319 ft | 281 kts | 119° |
| 2026-04-25 09:49 | 25.12438 | 55.29726 | 10799 ft | 284 kts | 119° |
| 2026-04-25 09:50 | 25.11508 | 55.31657 | 11319 ft | 285 kts | 119° |
| 2026-04-25 09:50 | 25.10589 | 55.33568 | 11851 ft | 287 kts | 118° |
| 2026-04-25 09:50 | 25.09737 | 55.35586 | 12396 ft | 290 kts | 115° |
| 2026-04-25 09:50 | 25.08928 | 55.37614 | 12940 ft | 292 kts | 115° |
| 2026-04-25 09:51 | 25.08094 | 55.39671 | 13518 ft | 295 kts | 115° |
| 2026-04-25 09:51 | 25.07251 | 55.41724 | 14030 ft | 300 kts | 116° |
| 2026-04-25 09:51 | 25.06423 | 55.43837 | 14597 ft | 303 kts | 114° |
| 2026-04-25 09:51 | 25.05600 | 55.46003 | 15228 ft | 306 kts | 114° |
| 2026-04-25 09:52 | 25.04780 | 55.48147 | 15785 ft | 310 kts | 114° |
| 2026-04-25 09:52 | 25.03937 | 55.50338 | 16362 ft | 313 kts | 114° |
| 2026-04-25 09:52 | 25.03081 | 55.52562 | 16927 ft | 317 kts | 114° |
| 2026-04-25 09:52 | 25.02213 | 55.54794 | 17502 ft | 320 kts | 116° |
| 2026-04-25 09:53 | 25.01142 | 55.56973 | 18029 ft | 323 kts | 122° |
| 2026-04-25 09:53 | 24.99989 | 55.59105 | 18577 ft | 326 kts | 122° |
| 2026-04-25 09:53 | 24.98826 | 55.61251 | 19122 ft | 329 kts | 122° |
| 2026-04-25 09:53 | 24.97657 | 55.63412 | 19626 ft | 332 kts | 122° |
| 2026-04-25 09:54 | 24.96472 | 55.65605 | 20147 ft | 334 kts | 123° |
| 2026-04-25 09:54 | 24.95274 | 55.67820 | 20647 ft | 337 kts | 122° |
| 2026-04-25 09:54 | 24.94052 | 55.70025 | 21120 ft | 340 kts | 126° |
| 2026-04-25 09:54 | 24.92666 | 55.72150 | 21573 ft | 343 kts | 128° |
| 2026-04-25 09:55 | 24.91261 | 55.74265 | 22031 ft | 346 kts | 128° |
| 2026-04-25 09:55 | 24.89841 | 55.76404 | 22461 ft | 349 kts | 128° |
| 2026-04-25 09:55 | 24.88382 | 55.78604 | 22926 ft | 351 kts | 128° |
| 2026-04-25 09:55 | 24.86956 | 55.80752 | 23340 ft | 354 kts | 128° |
| 2026-04-25 09:56 | 24.85498 | 55.82950 | 23765 ft | 356 kts | 128° |
| 2026-04-25 09:56 | 24.84030 | 55.85162 | 24157 ft | 359 kts | 128° |
| 2026-04-25 09:56 | 24.82547 | 55.87362 | 24557 ft | 360 kts | 129° |
| 2026-04-25 09:56 | 24.80883 | 55.89440 | 24876 ft | 361 kts | 140° |
| 2026-04-25 09:57 | 24.78916 | 55.91151 | 25198 ft | 361 kts | 150° |
| 2026-04-25 09:57 | 24.76723 | 55.92435 | 25554 ft | 360 kts | 161° |
| 2026-04-25 09:57 | 24.74342 | 55.93277 | 25907 ft | 358 kts | 171° |
| 2026-04-25 09:57 | 24.71860 | 55.93640 | 26245 ft | 357 kts | 181° |
| 2026-04-25 09:58 | 24.69384 | 55.93615 | 26603 ft | 357 kts | 185° |
| 2026-04-25 09:58 | 24.66898 | 55.93534 | 27016 ft | 357 kts | 185° |
| 2026-04-25 09:58 | 24.64426 | 55.93367 | 27356 ft | 357 kts | 191° |
| 2026-04-25 09:58 | 24.61998 | 55.92831 | 27640 ft | 358 kts | 199° |
| 2026-04-25 09:59 | 24.59638 | 55.91895 | 27968 ft | 357 kts | 208° |
| 2026-04-25 09:59 | 24.57460 | 55.90602 | 28323 ft | 355 kts | 216° |
| 2026-04-25 09:59 | 24.55489 | 55.88990 | 28671 ft | 354 kts | 223° |
| 2026-04-25 09:59 | 24.53630 | 55.87207 | 29047 ft | 354 kts | 224° |
| 2026-04-25 10:00 | 24.51792 | 55.85431 | 29430 ft | 355 kts | 224° |
| 2026-04-25 10:00 | 24.49931 | 55.83636 | 29774 ft | 356 kts | 224° |
| 2026-04-25 10:00 | 24.48060 | 55.81834 | 30050 ft | 359 kts | 224° |
| 2026-04-25 10:00 | 24.46182 | 55.80026 | 30339 ft | 361 kts | 224° |
| 2026-04-25 10:01 | 24.44304 | 55.78220 | 30670 ft | 362 kts | 224° |
| 2026-04-25 10:01 | 24.42397 | 55.76388 | 30977 ft | 363 kts | 224° |
| 2026-04-25 10:01 | 24.40494 | 55.74559 | 31251 ft | 365 kts | 224° |
| 2026-04-25 10:01 | 24.38583 | 55.72725 | 31511 ft | 366 kts | 224° |
| 2026-04-25 10:02 | 24.36655 | 55.70874 | 31769 ft | 368 kts | 223° |
| 2026-04-25 10:02 | 24.34735 | 55.69031 | 32023 ft | 370 kts | 223° |
| 2026-04-25 10:02 | 24.32807 | 55.67182 | 32283 ft | 371 kts | 223° |
| 2026-04-25 10:02 | 24.30864 | 55.65320 | 32563 ft | 371 kts | 224° |
| 2026-04-25 10:03 | 24.28901 | 55.63439 | 32812 ft | 372 kts | 223° |
| 2026-04-25 10:03 | 24.26806 | 55.61724 | 33024 ft | 376 kts | 215° |
| 2026-04-25 10:03 | 24.24488 | 55.60372 | 33213 ft | 381 kts | 206° |
| 2026-04-25 10:03 | 24.21991 | 55.59410 | 33384 ft | 386 kts | 199° |
| 2026-04-25 10:04 | 24.19387 | 55.58631 | 33587 ft | 388 kts | 199° |
| 2026-04-25 10:04 | 24.16767 | 55.57856 | 33763 ft | 390 kts | 199° |
| 2026-04-25 10:04 | 24.14113 | 55.57069 | 33917 ft | 392 kts | 199° |
| 2026-04-25 10:04 | 24.11461 | 55.56280 | 33942 ft | 396 kts | 199° |
| 2026-04-25 10:05 | 24.06049 | 55.54668 | 33943 ft | 401 kts | 199° |
| 2026-04-25 10:05 | 24.00634 | 55.53055 | 33932 ft | 400 kts | 199° |
| 2026-04-25 10:06 | 23.95222 | 55.51447 | 33931 ft | 401 kts | 199° |
| 2026-04-25 10:06 | 23.89778 | 55.49831 | 33925 ft | 401 kts | 199° |
| 2026-04-25 10:07 | 23.84404 | 55.48237 | 33912 ft | 402 kts | 200° |
| 2026-04-25 10:07 | 23.78946 | 55.46615 | 34196 ft | 406 kts | 199° |
| 2026-04-25 10:08 | 23.76219 | 55.45806 | 34425 ft | 406 kts | 199° |
| 2026-04-25 10:08 | 23.73456 | 55.44986 | 34587 ft | 408 kts | 200° |
| 2026-04-25 10:08 | 23.70718 | 55.44173 | 34721 ft | 410 kts | 200° |
| 2026-04-25 10:08 | 23.67983 | 55.43362 | 34866 ft | 411 kts | 200° |
| 2026-04-25 10:09 | 23.65188 | 55.42534 | 34997 ft | 413 kts | 200° |
| 2026-04-25 10:09 | 23.62405 | 55.41710 | 35131 ft | 415 kts | 200° |
| 2026-04-25 10:09 | 23.59572 | 55.40871 | 35277 ft | 416 kts | 200° |
| 2026-04-25 10:09 | 23.56758 | 55.40041 | 35418 ft | 418 kts | 199° |
| 2026-04-25 10:10 | 23.50855 | 55.39290 | 35531 ft | 434 kts | 183° |
| 2026-04-25 10:10 | 23.47822 | 55.39601 | 35657 ft | 440 kts | 175° |
| 2026-04-25 10:10 | 23.44787 | 55.40358 | 35799 ft | 445 kts | 169° |
| 2026-04-25 10:11 | 23.38785 | 55.42173 | 35897 ft | 448 kts | 168° |
| 2026-04-25 10:11 | 23.32762 | 55.44115 | 35893 ft | 450 kts | 168° |
| 2026-04-25 10:12 | 23.26729 | 55.46042 | 35889 ft | 449 kts | 168° |
| 2026-04-25 10:13 | 23.17662 | 55.48917 | 35891 ft | 450 kts | 168° |
| 2026-04-25 10:13 | 23.11671 | 55.50808 | 35893 ft | 450 kts | 168° |
| 2026-04-25 10:14 | 23.05623 | 55.52714 | 35895 ft | 452 kts | 168° |
| 2026-04-25 10:14 | 22.99603 | 55.54587 | 35894 ft | 450 kts | 168° |
| 2026-04-25 10:15 | 22.93532 | 55.56449 | 35893 ft | 453 kts | 168° |
| 2026-04-25 10:15 | 22.87428 | 55.58321 | 35882 ft | 451 kts | 168° |
| 2026-04-25 10:16 | 22.81387 | 55.60173 | 35879 ft | 453 kts | 168° |
| 2026-04-25 10:16 | 22.75313 | 55.62033 | 35876 ft | 453 kts | 168° |
| 2026-04-25 10:17 | 22.69217 | 55.63899 | 35874 ft | 453 kts | 168° |
| 2026-04-25 10:17 | 22.63139 | 55.65757 | 35874 ft | 454 kts | 168° |
| 2026-04-25 10:18 | 22.57055 | 55.67620 | 35873 ft | 453 kts | 168° |
| 2026-04-25 10:18 | 22.50977 | 55.69480 | 35872 ft | 454 kts | 168° |
| 2026-04-25 10:19 | 22.44870 | 55.71347 | 35874 ft | 456 kts | 168° |
| 2026-04-25 10:19 | 22.38767 | 55.73211 | 35872 ft | 456 kts | 167° |
| 2026-04-25 10:20 | 22.32688 | 55.75066 | 35874 ft | 455 kts | 168° |
| 2026-04-25 10:20 | 22.26542 | 55.76892 | 35866 ft | 455 kts | 172° |
| 2026-04-25 10:21 | 22.20317 | 55.77704 | 35875 ft | 452 kts | 179° |
| 2026-04-25 10:21 | 22.14046 | 55.78325 | 35878 ft | 450 kts | 179° |
| 2026-04-25 10:22 | 22.07809 | 55.78942 | 35884 ft | 452 kts | 179° |
| 2026-04-25 10:22 | 22.01548 | 55.79562 | 35888 ft | 452 kts | 179° |
| 2026-04-25 10:23 | 21.95248 | 55.80188 | 35885 ft | 452 kts | 179° |
| 2026-04-25 10:23 | 21.88956 | 55.80811 | 35885 ft | 454 kts | 179° |
| 2026-04-25 10:24 | 21.82673 | 55.81435 | 35879 ft | 452 kts | 179° |
| 2026-04-25 10:24 | 21.76400 | 55.82055 | 35879 ft | 454 kts | 178° |
| 2026-04-25 10:25 | 21.70107 | 55.82678 | 35872 ft | 454 kts | 178° |
| 2026-04-25 10:25 | 21.63818 | 55.83297 | 35872 ft | 455 kts | 178° |
| 2026-04-25 10:26 | 21.57479 | 55.83919 | 35867 ft | 455 kts | 178° |
| 2026-04-25 10:26 | 21.51170 | 55.84538 | 35874 ft | 456 kts | 178° |
| 2026-04-25 10:27 | 21.44825 | 55.85160 | 35877 ft | 456 kts | 178° |
| 2026-04-25 10:27 | 21.38498 | 55.85780 | 35882 ft | 457 kts | 178° |
| 2026-04-25 10:28 | 21.32159 | 55.86401 | 35878 ft | 456 kts | 178° |
| 2026-04-25 10:28 | 21.25823 | 55.87020 | 35887 ft | 459 kts | 178° |
| 2026-04-25 10:29 | 21.19486 | 55.87638 | 35889 ft | 458 kts | 178° |
| 2026-04-25 10:29 | 21.13096 | 55.88260 | 35889 ft | 459 kts | 178° |
| 2026-04-25 10:30 | 21.06724 | 55.88880 | 35892 ft | 458 kts | 178° |
| 2026-04-25 10:30 | 21.00400 | 55.89494 | 35897 ft | 459 kts | 178° |
| 2026-04-25 10:31 | 20.94007 | 55.90115 | 35886 ft | 459 kts | 178° |
| 2026-04-25 10:31 | 20.87635 | 55.90734 | 35875 ft | 460 kts | 178° |
| 2026-04-25 10:32 | 20.81239 | 55.91355 | 35882 ft | 458 kts | 178° |
| 2026-04-25 10:32 | 20.74878 | 55.91971 | 35894 ft | 459 kts | 178° |
| 2026-04-25 10:33 | 20.68482 | 55.92591 | 35899 ft | 460 kts | 178° |
| 2026-04-25 10:33 | 20.62108 | 55.93208 | 35896 ft | 461 kts | 178° |
| 2026-04-25 10:34 | 20.55693 | 55.93829 | 35899 ft | 461 kts | 178° |
| 2026-04-25 10:34 | 20.49291 | 55.94447 | 35897 ft | 461 kts | 178° |
| 2026-04-25 10:35 | 20.42873 | 55.95067 | 35899 ft | 463 kts | 178° |
| 2026-04-25 10:35 | 20.36437 | 55.95688 | 35899 ft | 461 kts | 178° |
| 2026-04-25 10:36 | 20.30065 | 55.96302 | 35902 ft | 462 kts | 178° |
| 2026-04-25 10:36 | 20.23613 | 55.96916 | 35901 ft | 462 kts | 178° |
| 2026-04-25 10:37 | 20.17217 | 55.97524 | 35904 ft | 463 kts | 178° |
| 2026-04-25 10:37 | 20.10784 | 55.98136 | 35909 ft | 461 kts | 178° |
| 2026-04-25 10:38 | 20.04391 | 55.98566 | 35907 ft | 461 kts | 182° |
| 2026-04-25 10:38 | 19.97986 | 55.98680 | 35908 ft | 459 kts | 182° |
| 2026-04-25 10:39 | 19.91551 | 55.98813 | 35912 ft | 463 kts | 181° |
| 2026-04-25 10:39 | 19.85081 | 55.98961 | 35902 ft | 461 kts | 182° |
| 2026-04-25 10:40 | 19.78678 | 55.99113 | 35901 ft | 462 kts | 182° |
| 2026-04-25 10:40 | 19.72213 | 55.99271 | 35905 ft | 463 kts | 181° |
| 2026-04-25 10:41 | 19.65765 | 55.99430 | 35902 ft | 462 kts | 182° |
| 2026-04-25 10:41 | 19.59289 | 55.99590 | 35905 ft | 465 kts | 181° |
| 2026-04-25 10:42 | 19.52853 | 55.99397 | 35901 ft | 458 kts | 193° |
| 2026-04-25 10:42 | 19.46849 | 55.97427 | 35900 ft | 449 kts | 211° |
| 2026-04-25 10:43 | 19.41424 | 55.94231 | 35908 ft | 446 kts | 215° |
| 2026-04-25 10:43 | 19.36006 | 55.90945 | 35910 ft | 447 kts | 215° |
| 2026-04-25 10:44 | 19.30637 | 55.87692 | 35907 ft | 447 kts | 215° |
| 2026-04-25 10:44 | 19.25232 | 55.84419 | 35908 ft | 447 kts | 215° |
| 2026-04-25 10:45 | 19.19834 | 55.81154 | 35910 ft | 448 kts | 216° |
| 2026-04-25 10:45 | 19.14437 | 55.77892 | 35911 ft | 446 kts | 215° |
| 2026-04-25 10:46 | 19.09005 | 55.74611 | 35916 ft | 447 kts | 216° |
| 2026-04-25 10:46 | 19.03629 | 55.71366 | 35920 ft | 447 kts | 216° |
| 2026-04-25 10:47 | 18.98220 | 55.68105 | 35918 ft | 445 kts | 215° |
| 2026-04-25 10:47 | 18.92826 | 55.64855 | 35926 ft | 449 kts | 215° |
| 2026-04-25 10:48 | 18.87398 | 55.61588 | 35913 ft | 446 kts | 215° |
| 2026-04-25 10:48 | 18.81960 | 55.58316 | 35909 ft | 448 kts | 216° |
| 2026-04-25 10:49 | 18.76561 | 55.55072 | 35910 ft | 446 kts | 216° |
| 2026-04-25 10:49 | 18.71149 | 55.51820 | 35903 ft | 448 kts | 215° |
| 2026-04-25 10:50 | 18.65737 | 55.48572 | 35912 ft | 448 kts | 216° |
| 2026-04-25 10:50 | 18.60320 | 55.45324 | 35917 ft | 448 kts | 216° |
| 2026-04-25 10:51 | 18.54878 | 55.42062 | 35919 ft | 448 kts | 215° |
| 2026-04-25 10:51 | 18.49477 | 55.38827 | 35928 ft | 448 kts | 216° |
| 2026-04-25 10:52 | 18.44036 | 55.35572 | 35937 ft | 448 kts | 216° |
| 2026-04-25 10:52 | 18.38616 | 55.32330 | 35945 ft | 449 kts | 215° |
| 2026-04-25 10:53 | 18.33180 | 55.29082 | 35945 ft | 449 kts | 215° |
| 2026-04-25 10:53 | 18.27731 | 55.25831 | 35953 ft | 448 kts | 215° |
| 2026-04-25 10:54 | 18.22306 | 55.22595 | 35949 ft | 448 kts | 215° |
| 2026-04-25 10:54 | 18.16858 | 55.19348 | 35962 ft | 450 kts | 216° |
| 2026-04-25 10:55 | 18.11234 | 55.16419 | 35971 ft | 455 kts | 208° |
| 2026-04-25 10:55 | 18.05413 | 55.13808 | 35966 ft | 454 kts | 208° |
| 2026-04-25 10:56 | 17.99557 | 55.11181 | 35980 ft | 456 kts | 208° |
| 2026-04-25 10:56 | 17.93745 | 55.08575 | 35983 ft | 455 kts | 208° |
| 2026-04-25 10:57 | 17.87898 | 55.05953 | 35966 ft | 456 kts | 208° |
| 2026-04-25 10:57 | 17.82063 | 55.03339 | 35965 ft | 456 kts | 208° |
| 2026-04-25 10:58 | 17.76223 | 55.00724 | 35971 ft | 454 kts | 208° |
| 2026-04-25 10:58 | 17.70417 | 54.98125 | 35980 ft | 454 kts | 208° |
| 2026-04-25 10:59 | 17.64584 | 54.95517 | 35998 ft | 455 kts | 208° |
| 2026-04-25 10:59 | 17.58756 | 54.92911 | 36011 ft | 456 kts | 208° |
| 2026-04-25 11:00 | 17.52927 | 54.90308 | 36026 ft | 456 kts | 208° |
| 2026-04-25 11:00 | 17.47068 | 54.87693 | 36034 ft | 454 kts | 208° |
| 2026-04-25 11:01 | 17.41260 | 54.85102 | 36059 ft | 456 kts | 208° |
| 2026-04-25 11:01 | 17.35404 | 54.82492 | 36071 ft | 457 kts | 208° |
| 2026-04-25 11:02 | 17.29565 | 54.79891 | 36091 ft | 457 kts | 208° |
| 2026-04-25 11:02 | 17.24029 | 54.76774 | 36105 ft | 448 kts | 218° |
| 2026-04-25 11:03 | 17.18764 | 54.73243 | 36067 ft | 449 kts | 219° |
| 2026-04-25 11:03 | 17.13486 | 54.69706 | 36028 ft | 448 kts | 218° |
| 2026-04-25 11:04 | 17.08227 | 54.66186 | 35980 ft | 448 kts | 218° |
| 2026-04-25 11:04 | 17.02987 | 54.62682 | 35943 ft | 447 kts | 218° |
| 2026-04-25 11:05 | 16.97755 | 54.59185 | 35912 ft | 449 kts | 218° |
| 2026-04-25 11:05 | 16.92457 | 54.55649 | 35911 ft | 449 kts | 218° |
| 2026-04-25 11:06 | 16.87186 | 54.52132 | 35902 ft | 450 kts | 218° |
| 2026-04-25 11:06 | 16.81933 | 54.48629 | 35903 ft | 449 kts | 218° |
| 2026-04-25 11:07 | 16.76664 | 54.45116 | 35902 ft | 449 kts | 219° |
| 2026-04-25 11:07 | 16.71399 | 54.41609 | 35905 ft | 449 kts | 218° |
| 2026-04-25 11:08 | 16.66147 | 54.38113 | 35900 ft | 449 kts | 218° |
| 2026-04-25 11:08 | 16.60870 | 54.34602 | 35905 ft | 450 kts | 218° |
| 2026-04-25 11:09 | 16.55559 | 54.31072 | 35914 ft | 451 kts | 218° |
| 2026-04-25 11:09 | 16.50284 | 54.27568 | 35912 ft | 451 kts | 218° |
| 2026-04-25 11:10 | 16.45004 | 54.24062 | 35912 ft | 449 kts | 218° |
| 2026-04-25 11:10 | 16.39703 | 54.20544 | 35911 ft | 451 kts | 218° |
| 2026-04-25 11:11 | 16.34420 | 54.17042 | 35912 ft | 450 kts | 218° |
| 2026-04-25 11:11 | 16.29152 | 54.13552 | 35917 ft | 450 kts | 218° |
| 2026-04-25 11:12 | 16.23859 | 54.10047 | 35915 ft | 450 kts | 218° |
| 2026-04-25 11:12 | 16.18575 | 54.06550 | 35918 ft | 450 kts | 218° |
| 2026-04-25 11:13 | 16.13260 | 54.03035 | 35916 ft | 451 kts | 218° |
| 2026-04-25 11:13 | 16.07996 | 53.99556 | 35917 ft | 451 kts | 218° |
| 2026-04-25 11:14 | 16.02667 | 53.96036 | 35925 ft | 452 kts | 218° |
| 2026-04-25 11:14 | 15.97386 | 53.92551 | 35933 ft | 449 kts | 218° |
| 2026-04-25 11:15 | 15.92078 | 53.89049 | 35935 ft | 452 kts | 218° |
| 2026-04-25 11:15 | 15.86777 | 53.85552 | 35920 ft | 449 kts | 218° |
| 2026-04-25 11:16 | 15.78886 | 53.80272 | 35919 ft | 449 kts | 218° |
| 2026-04-25 11:16 | 15.73629 | 53.76757 | 35924 ft | 450 kts | 218° |
| 2026-04-25 11:17 | 15.68387 | 53.73255 | 35921 ft | 449 kts | 218° |
| 2026-04-25 11:17 | 15.63118 | 53.69739 | 35918 ft | 450 kts | 218° |
| 2026-04-25 11:18 | 15.57819 | 53.66204 | 35921 ft | 452 kts | 218° |
| 2026-04-25 11:18 | 15.52557 | 53.62698 | 35920 ft | 451 kts | 218° |
| 2026-04-25 11:19 | 15.47319 | 53.59119 | 35918 ft | 447 kts | 224° |
| 2026-04-25 11:19 | 15.43054 | 53.54603 | 35917 ft | 433 kts | 241° |
| 2026-04-25 11:20 | 15.40176 | 53.49221 | 35920 ft | 424 kts | 252° |
| 2026-04-25 11:20 | 15.37728 | 53.43715 | 35913 ft | 424 kts | 252° |
| 2026-04-25 11:21 | 15.35258 | 53.38164 | 35910 ft | 424 kts | 252° |
| 2026-04-25 11:21 | 15.32799 | 53.32646 | 35911 ft | 424 kts | 252° |
| 2026-04-25 11:22 | 15.30737 | 53.28026 | 35906 ft | 423 kts | 252° |
| 2026-04-25 11:22 | 15.27852 | 53.21566 | 35916 ft | 423 kts | 252° |
| 2026-04-25 11:23 | 15.25375 | 53.16025 | 35917 ft | 425 kts | 252° |
| 2026-04-25 11:23 | 15.22901 | 53.10496 | 35913 ft | 424 kts | 252° |
| 2026-04-25 11:24 | 15.20442 | 53.05003 | 35914 ft | 425 kts | 252° |
| 2026-04-25 11:24 | 15.17955 | 52.99453 | 35911 ft | 426 kts | 252° |
| 2026-04-25 11:25 | 15.15473 | 52.93919 | 35912 ft | 425 kts | 252° |
| 2026-04-25 11:25 | 15.12984 | 52.88375 | 35913 ft | 425 kts | 252° |
| 2026-04-25 11:26 | 15.10500 | 52.82845 | 35912 ft | 423 kts | 251° |
| 2026-04-25 11:26 | 15.08019 | 52.77324 | 35910 ft | 425 kts | 251° |
| 2026-04-25 11:27 | 15.05534 | 52.71801 | 35915 ft | 424 kts | 251° |
| 2026-04-25 11:27 | 15.03465 | 52.67205 | 35911 ft | 424 kts | 251° |
| 2026-04-25 11:28 | 15.00557 | 52.60750 | 35911 ft | 424 kts | 251° |
| 2026-04-25 11:28 | 14.98068 | 52.55232 | 35916 ft | 425 kts | 251° |
| 2026-04-25 11:29 | 14.95567 | 52.49689 | 35911 ft | 423 kts | 251° |
| 2026-04-25 11:29 | 14.93078 | 52.44178 | 35914 ft | 423 kts | 252° |
| 2026-04-25 11:30 | 14.90584 | 52.38659 | 35914 ft | 424 kts | 251° |
| 2026-04-25 11:30 | 14.88088 | 52.33139 | 35907 ft | 425 kts | 251° |
| 2026-04-25 11:31 | 14.85597 | 52.27660 | 35906 ft | 423 kts | 251° |
| 2026-04-25 11:31 | 14.83068 | 52.22174 | 35907 ft | 425 kts | 251° |
| 2026-04-25 11:32 | 14.80534 | 52.16681 | 35907 ft | 424 kts | 251° |
| 2026-04-25 11:32 | 14.77994 | 52.11176 | 35907 ft | 423 kts | 251° |
| 2026-04-25 11:33 | 14.75455 | 52.05676 | 35904 ft | 424 kts | 251° |
| 2026-04-25 11:33 | 14.72917 | 52.00181 | 35898 ft | 425 kts | 251° |
| 2026-04-25 11:34 | 14.70390 | 51.94716 | 35899 ft | 423 kts | 251° |
| 2026-04-25 11:34 | 14.67849 | 51.89223 | 35898 ft | 424 kts | 251° |
| 2026-04-25 11:35 | 14.65312 | 51.83711 | 35897 ft | 424 kts | 251° |
| 2026-04-25 11:35 | 14.62813 | 51.78227 | 35894 ft | 424 kts | 251° |
| 2026-04-25 11:36 | 14.60300 | 51.72720 | 35896 ft | 424 kts | 251° |
| 2026-04-25 11:36 | 14.57777 | 51.67195 | 35893 ft | 424 kts | 251° |
| 2026-04-25 11:37 | 14.55271 | 51.61713 | 35893 ft | 424 kts | 251° |
| 2026-04-25 11:37 | 14.52751 | 51.56206 | 35888 ft | 424 kts | 251° |
| 2026-04-25 11:38 | 14.50238 | 51.50717 | 35886 ft | 425 kts | 251° |
| 2026-04-25 11:38 | 14.47714 | 51.45209 | 35889 ft | 425 kts | 251° |
| 2026-04-25 11:39 | 14.45183 | 51.39691 | 35894 ft | 425 kts | 251° |
| 2026-04-25 11:39 | 14.42665 | 51.34204 | 35900 ft | 425 kts | 250° |
| 2026-04-25 11:40 | 14.40129 | 51.28684 | 35907 ft | 426 kts | 250° |
| 2026-04-25 11:40 | 14.37604 | 51.23189 | 35912 ft | 426 kts | 250° |
| 2026-04-25 11:41 | 14.35066 | 51.17671 | 35912 ft | 426 kts | 250° |
| 2026-04-25 11:41 | 14.32531 | 51.12165 | 35911 ft | 427 kts | 250° |
| 2026-04-25 11:42 | 14.29992 | 51.06652 | 35912 ft | 427 kts | 250° |
| 2026-04-25 11:42 | 14.27434 | 51.01102 | 35914 ft | 427 kts | 250° |
| 2026-04-25 11:43 | 14.24899 | 50.95607 | 35910 ft | 426 kts | 250° |
| 2026-04-25 11:43 | 14.22354 | 50.90094 | 35908 ft | 426 kts | 250° |
| 2026-04-25 11:44 | 14.19805 | 50.84576 | 35909 ft | 426 kts | 250° |
| 2026-04-25 11:44 | 14.17261 | 50.79073 | 35906 ft | 427 kts | 250° |
| 2026-04-25 11:45 | 14.14704 | 50.73546 | 35909 ft | 428 kts | 250° |
| 2026-04-25 11:45 | 14.12159 | 50.68049 | 35912 ft | 427 kts | 250° |
| 2026-04-25 11:46 | 14.09477 | 50.62559 | 35914 ft | 430 kts | 246° |
| 2026-04-25 11:46 | 14.06566 | 50.57216 | 35900 ft | 429 kts | 246° |
| 2026-04-25 11:47 | 14.03666 | 50.51862 | 35896 ft | 430 kts | 246° |
| 2026-04-25 11:47 | 14.00760 | 50.46481 | 35893 ft | 429 kts | 246° |
| 2026-04-25 11:48 | 13.97864 | 50.41108 | 35892 ft | 429 kts | 246° |
| 2026-04-25 11:48 | 13.94969 | 50.35737 | 35894 ft | 430 kts | 246° |
| 2026-04-25 11:49 | 13.92058 | 50.30336 | 35896 ft | 431 kts | 246° |
| 2026-04-25 11:49 | 13.89162 | 50.24965 | 35885 ft | 430 kts | 246° |
| 2026-04-25 11:50 | 13.86270 | 50.19603 | 35884 ft | 430 kts | 246° |
| 2026-04-25 11:50 | 13.83363 | 50.14219 | 35892 ft | 430 kts | 246° |
| 2026-04-25 11:51 | 13.80464 | 50.08852 | 35882 ft | 429 kts | 246° |
| 2026-04-25 11:51 | 13.77576 | 50.03494 | 35883 ft | 429 kts | 247° |
| 2026-04-25 11:52 | 13.74708 | 49.98142 | 35882 ft | 431 kts | 247° |
| 2026-04-25 11:52 | 13.71812 | 49.92745 | 35879 ft | 429 kts | 247° |
| 2026-04-25 11:53 | 13.68913 | 49.87345 | 35880 ft | 431 kts | 246° |
| 2026-04-25 11:53 | 13.66022 | 49.81965 | 35882 ft | 432 kts | 246° |
| 2026-04-25 11:54 | 13.63130 | 49.76587 | 35877 ft | 430 kts | 246° |
| 2026-04-25 11:55 | 13.58791 | 49.68525 | 35876 ft | 430 kts | 247° |
| 2026-04-25 11:55 | 13.55901 | 49.63160 | 35878 ft | 428 kts | 247° |
| 2026-04-25 11:56 | 13.53012 | 49.57797 | 35873 ft | 429 kts | 247° |
| 2026-04-25 11:56 | 13.50122 | 49.52439 | 35874 ft | 431 kts | 246° |
| 2026-04-25 11:57 | 13.47219 | 49.47060 | 35876 ft | 431 kts | 247° |
| 2026-04-25 11:57 | 13.44331 | 49.41711 | 35868 ft | 430 kts | 247° |
| 2026-04-25 11:58 | 13.41429 | 49.36338 | 35868 ft | 432 kts | 246° |
| 2026-04-25 11:58 | 13.38519 | 49.30956 | 35873 ft | 432 kts | 246° |
| 2026-04-25 11:59 | 13.35606 | 49.25574 | 35870 ft | 430 kts | 246° |
| 2026-04-25 11:59 | 13.32713 | 49.20229 | 35872 ft | 429 kts | 246° |
| 2026-04-25 12:00 | 13.28426 | 49.12225 | 35871 ft | 430 kts | 247° |
| 2026-04-25 12:01 | 13.24107 | 49.04129 | 35873 ft | 430 kts | 247° |
| 2026-04-25 12:01 | 13.21262 | 48.98802 | 35870 ft | 430 kts | 246° |
| 2026-04-25 12:02 | 13.16937 | 48.90713 | 35868 ft | 431 kts | 246° |
| 2026-04-25 12:02 | 13.14043 | 48.85306 | 35869 ft | 430 kts | 246° |
| 2026-04-25 12:03 | 13.11171 | 48.79942 | 35874 ft | 429 kts | 247° |
| 2026-04-25 12:03 | 13.08302 | 48.74589 | 35872 ft | 429 kts | 247° |
| 2026-04-25 12:04 | 13.05434 | 48.69239 | 35872 ft | 429 kts | 246° |
| 2026-04-25 12:04 | 13.02562 | 48.63887 | 35875 ft | 430 kts | 247° |
| 2026-04-25 12:05 | 12.99676 | 48.58511 | 35871 ft | 429 kts | 246° |
| 2026-04-25 12:05 | 12.96809 | 48.53173 | 35870 ft | 429 kts | 246° |
| 2026-04-25 12:06 | 12.93920 | 48.47797 | 35868 ft | 430 kts | 247° |
| 2026-04-25 12:06 | 12.90985 | 48.42334 | 35874 ft | 447 kts | 246° |
| 2026-04-25 12:07 | 12.87923 | 48.36639 | 35856 ft | 465 kts | 246° |
| 2026-04-25 12:07 | 12.84732 | 48.30709 | 35856 ft | 483 kts | 246° |
| 2026-04-25 12:08 | 12.81474 | 48.24670 | 35857 ft | 484 kts | 246° |
| 2026-04-25 12:08 | 12.78209 | 48.18620 | 35861 ft | 484 kts | 246° |
| 2026-04-25 12:09 | 12.74949 | 48.12581 | 35858 ft | 483 kts | 246° |
| 2026-04-25 12:09 | 12.71703 | 48.06570 | 35860 ft | 483 kts | 246° |
| 2026-04-25 12:10 | 12.68461 | 48.00571 | 35858 ft | 484 kts | 245° |
| 2026-04-25 12:10 | 12.65201 | 47.94542 | 35860 ft | 484 kts | 246° |
| 2026-04-25 12:11 | 12.61927 | 47.88491 | 35858 ft | 485 kts | 246° |
| 2026-04-25 12:11 | 12.58665 | 47.82467 | 35858 ft | 485 kts | 246° |
| 2026-04-25 12:12 | 12.55937 | 47.77431 | 35856 ft | 485 kts | 246° |
| 2026-04-25 12:12 | 12.52134 | 47.70417 | 35858 ft | 484 kts | 245° |
| 2026-04-25 12:13 | 12.48864 | 47.64391 | 35858 ft | 484 kts | 245° |
| 2026-04-25 12:13 | 12.45596 | 47.58369 | 35856 ft | 484 kts | 245° |
| 2026-04-25 12:14 | 12.42358 | 47.52367 | 35846 ft | 482 kts | 249° |
| 2026-04-25 12:14 | 12.40348 | 47.45937 | 35853 ft | 472 kts | 266° |
| 2026-04-25 12:15 | 12.39809 | 47.39302 | 35854 ft | 469 kts | 271° |
| 2026-04-25 12:15 | 12.39382 | 47.32689 | 35860 ft | 468 kts | 270° |
| 2026-04-25 12:16 | 12.38948 | 47.26037 | 35860 ft | 468 kts | 271° |
| 2026-04-25 12:16 | 12.38514 | 47.19421 | 35864 ft | 468 kts | 270° |
| 2026-04-25 12:17 | 12.38080 | 47.12838 | 35867 ft | 467 kts | 271° |
| 2026-04-25 12:17 | 12.37641 | 47.06203 | 35870 ft | 467 kts | 270° |
| 2026-04-25 12:18 | 12.37216 | 46.99583 | 35869 ft | 468 kts | 271° |
| 2026-04-25 12:18 | 12.36799 | 46.92945 | 35869 ft | 467 kts | 271° |
| 2026-04-25 12:19 | 12.36171 | 46.83005 | 35866 ft | 470 kts | 271° |
| 2026-04-25 12:20 | 12.35748 | 46.76363 | 35859 ft | 468 kts | 271° |
| 2026-04-25 12:20 | 12.35325 | 46.69746 | 35844 ft | 467 kts | 271° |
| 2026-04-25 12:21 | 12.34900 | 46.63118 | 35846 ft | 467 kts | 270° |
| 2026-04-25 12:21 | 12.34473 | 46.56494 | 35847 ft | 468 kts | 270° |
| 2026-04-25 12:22 | 12.34048 | 46.49911 | 35847 ft | 468 kts | 270° |
| 2026-04-25 12:22 | 12.33617 | 46.43274 | 35847 ft | 469 kts | 270° |
| 2026-04-25 12:23 | 12.33185 | 46.36644 | 35846 ft | 468 kts | 270° |
| 2026-04-25 12:23 | 12.32752 | 46.30014 | 35849 ft | 468 kts | 270° |
| 2026-04-25 12:24 | 12.32316 | 46.23381 | 35847 ft | 468 kts | 270° |
| 2026-04-25 12:24 | 12.31879 | 46.16755 | 35847 ft | 467 kts | 270° |
| 2026-04-25 12:25 | 12.31441 | 46.10125 | 35850 ft | 469 kts | 270° |
| 2026-04-25 12:25 | 12.31004 | 46.03534 | 35849 ft | 469 kts | 270° |
| 2026-04-25 12:26 | 12.30562 | 45.96898 | 35849 ft | 468 kts | 270° |
| 2026-04-25 12:26 | 12.30119 | 45.90272 | 35849 ft | 467 kts | 270° |
| 2026-04-25 12:27 | 12.29674 | 45.83638 | 35848 ft | 469 kts | 270° |
| 2026-04-25 12:27 | 12.29229 | 45.77034 | 35850 ft | 468 kts | 270° |
| 2026-04-25 12:28 | 12.28781 | 45.70397 | 35850 ft | 469 kts | 270° |
| 2026-04-25 12:28 | 12.28330 | 45.63753 | 35849 ft | 468 kts | 270° |
| 2026-04-25 12:29 | 12.27879 | 45.57137 | 35848 ft | 467 kts | 270° |
| 2026-04-25 12:29 | 12.27430 | 45.50551 | 35847 ft | 468 kts | 270° |
| 2026-04-25 12:30 | 12.26975 | 45.43921 | 35850 ft | 468 kts | 270° |
| 2026-04-25 12:30 | 12.26522 | 45.37291 | 35851 ft | 468 kts | 270° |
| 2026-04-25 12:31 | 12.26100 | 45.30651 | 35852 ft | 468 kts | 270° |
| 2026-04-25 12:31 | 12.25679 | 45.24064 | 35852 ft | 468 kts | 270° |
| 2026-04-25 12:32 | 12.25253 | 45.17435 | 35851 ft | 468 kts | 270° |
| 2026-04-25 12:32 | 12.24825 | 45.10804 | 35851 ft | 469 kts | 270° |
| 2026-04-25 12:33 | 12.24394 | 45.04168 | 35847 ft | 467 kts | 270° |
| 2026-04-25 12:33 | 12.23962 | 44.97530 | 35839 ft | 468 kts | 270° |
| 2026-04-25 12:34 | 12.23530 | 44.90911 | 35841 ft | 468 kts | 270° |
| 2026-04-25 12:34 | 12.23096 | 44.84293 | 35840 ft | 468 kts | 270° |
| 2026-04-25 12:35 | 12.22662 | 44.77697 | 35846 ft | 469 kts | 270° |
| 2026-04-25 12:35 | 12.22221 | 44.71026 | 35842 ft | 469 kts | 270° |
| 2026-04-25 12:36 | 12.21782 | 44.64410 | 35849 ft | 468 kts | 270° |
| 2026-04-25 12:36 | 12.21342 | 44.57798 | 35852 ft | 469 kts | 270° |
| 2026-04-25 12:37 | 12.20894 | 44.51102 | 35851 ft | 469 kts | 270° |
| 2026-04-25 12:37 | 12.20450 | 44.44483 | 35849 ft | 467 kts | 270° |
| 2026-04-25 12:38 | 12.20006 | 44.37875 | 35848 ft | 468 kts | 270° |
| 2026-04-25 12:38 | 12.19558 | 44.31252 | 35851 ft | 470 kts | 270° |
| 2026-04-25 12:39 | 12.19107 | 44.24597 | 35850 ft | 470 kts | 270° |
| 2026-04-25 12:39 | 12.18655 | 44.17952 | 35851 ft | 470 kts | 270° |
| 2026-04-25 12:40 | 12.18202 | 44.11310 | 35851 ft | 469 kts | 270° |
| 2026-04-25 12:40 | 12.17208 | 44.04736 | 35850 ft | 475 kts | 256° |
| 2026-04-25 12:41 | 12.14315 | 43.98616 | 35856 ft | 485 kts | 240° |
| 2026-04-25 12:41 | 12.10519 | 43.92927 | 35853 ft | 485 kts | 239° |
| 2026-04-25 12:42 | 12.06679 | 43.87232 | 35853 ft | 486 kts | 239° |
| 2026-04-25 12:42 | 12.02857 | 43.81571 | 35855 ft | 486 kts | 239° |
| 2026-04-25 12:43 | 11.99012 | 43.75882 | 35856 ft | 485 kts | 239° |
| 2026-04-25 12:43 | 11.93259 | 43.67379 | 35858 ft | 487 kts | 239° |
| 2026-04-25 12:44 | 11.89420 | 43.61708 | 35856 ft | 486 kts | 239° |
| 2026-04-25 12:45 | 11.83730 | 43.53149 | 35851 ft | 486 kts | 240° |
| 2026-04-25 12:45 | 11.78096 | 43.44579 | 35853 ft | 486 kts | 239° |
| 2026-04-25 12:46 | 11.74319 | 43.38843 | 35854 ft | 487 kts | 239° |
| 2026-04-25 12:46 | 11.70548 | 43.33124 | 35855 ft | 486 kts | 239° |
| 2026-04-25 12:47 | 11.66779 | 43.27410 | 35858 ft | 486 kts | 239° |
| 2026-04-25 12:47 | 11.62997 | 43.21681 | 35860 ft | 486 kts | 239° |
| 2026-04-25 12:48 | 11.59222 | 43.15966 | 35868 ft | 487 kts | 239° |
| 2026-04-25 12:48 | 11.55443 | 43.10250 | 35877 ft | 486 kts | 239° |
| 2026-04-25 12:49 | 11.51984 | 43.04369 | 35897 ft | 484 kts | 245° |
| 2026-04-25 12:49 | 11.48788 | 42.98347 | 35910 ft | 485 kts | 245° |
| 2026-04-25 12:50 | 11.45563 | 42.92339 | 35927 ft | 484 kts | 244° |
| 2026-04-25 12:50 | 11.42322 | 42.86337 | 35937 ft | 484 kts | 244° |
| 2026-04-25 12:51 | 11.39071 | 42.80341 | 35938 ft | 485 kts | 244° |
| 2026-04-25 12:51 | 11.35797 | 42.74316 | 35956 ft | 484 kts | 244° |
| 2026-04-25 12:52 | 11.32531 | 42.68315 | 35957 ft | 484 kts | 244° |
| 2026-04-25 12:52 | 11.29283 | 42.62352 | 35951 ft | 484 kts | 244° |
| 2026-04-25 12:53 | 11.25992 | 42.56317 | 35942 ft | 485 kts | 244° |
| 2026-04-25 12:53 | 11.22738 | 42.50353 | 35937 ft | 485 kts | 244° |
| 2026-04-25 12:54 | 11.19460 | 42.44349 | 35926 ft | 484 kts | 244° |
| 2026-04-25 12:54 | 11.16196 | 42.38374 | 35918 ft | 485 kts | 244° |
| 2026-04-25 12:55 | 11.13468 | 42.33384 | 35911 ft | 484 kts | 244° |
| 2026-04-25 12:55 | 11.09646 | 42.26396 | 35892 ft | 485 kts | 244° |
| 2026-04-25 12:56 | 11.06383 | 42.20435 | 35888 ft | 484 kts | 244° |
| 2026-04-25 12:56 | 11.03173 | 42.14547 | 35875 ft | 484 kts | 245° |
| 2026-04-25 12:57 | 11.00051 | 42.08484 | 35862 ft | 484 kts | 245° |
| 2026-04-25 12:57 | 10.96944 | 42.02443 | 35869 ft | 483 kts | 245° |
| 2026-04-25 12:58 | 10.93820 | 41.96384 | 35894 ft | 482 kts | 245° |
| 2026-04-25 12:58 | 10.90710 | 41.90360 | 35926 ft | 483 kts | 245° |
| 2026-04-25 12:59 | 10.87570 | 41.84287 | 35931 ft | 484 kts | 245° |
| 2026-04-25 12:59 | 10.84429 | 41.78216 | 35939 ft | 483 kts | 245° |
| 2026-04-25 13:00 | 10.81818 | 41.73173 | 35939 ft | 484 kts | 245° |
| 2026-04-25 13:00 | 10.78174 | 41.66141 | 35927 ft | 484 kts | 245° |
| 2026-04-25 13:01 | 10.75016 | 41.60050 | 35915 ft | 485 kts | 245° |
| 2026-04-25 13:01 | 10.71884 | 41.54014 | 35912 ft | 484 kts | 245° |
| 2026-04-25 13:02 | 10.68741 | 41.47960 | 35910 ft | 483 kts | 245° |
| 2026-04-25 13:02 | 10.65614 | 41.41938 | 35917 ft | 485 kts | 245° |
| 2026-04-25 13:03 | 10.62453 | 41.35856 | 35929 ft | 484 kts | 245° |
| 2026-04-25 13:03 | 10.59298 | 41.29790 | 35933 ft | 485 kts | 245° |
| 2026-04-25 13:04 | 10.56162 | 41.23763 | 35935 ft | 484 kts | 245° |
| 2026-04-25 13:04 | 10.53008 | 41.17705 | 35936 ft | 484 kts | 245° |
| 2026-04-25 13:05 | 10.49873 | 41.11686 | 35930 ft | 485 kts | 245° |
| 2026-04-25 13:05 | 10.46716 | 41.05628 | 35925 ft | 485 kts | 245° |
| 2026-04-25 13:06 | 10.43572 | 40.99600 | 35916 ft | 484 kts | 245° |
| 2026-04-25 13:06 | 10.40424 | 40.93567 | 35936 ft | 484 kts | 245° |
| 2026-04-25 13:07 | 10.37255 | 40.87496 | 35956 ft | 484 kts | 245° |
| 2026-04-25 13:07 | 10.34116 | 40.81488 | 35966 ft | 484 kts | 245° |
| 2026-04-25 13:08 | 10.30943 | 40.75417 | 35981 ft | 484 kts | 245° |
| 2026-04-25 13:08 | 10.27792 | 40.69391 | 35988 ft | 485 kts | 245° |
| 2026-04-25 13:09 | 10.24626 | 40.63341 | 35980 ft | 484 kts | 245° |
| 2026-04-25 13:09 | 10.21463 | 40.57300 | 35981 ft | 485 kts | 245° |
| 2026-04-25 13:10 | 10.18313 | 40.51286 | 35975 ft | 485 kts | 245° |
| 2026-04-25 13:10 | 10.15148 | 40.45248 | 35978 ft | 485 kts | 245° |
| 2026-04-25 13:11 | 10.11975 | 40.39198 | 36000 ft | 484 kts | 244° |
| 2026-04-25 13:11 | 10.08797 | 40.33139 | 36007 ft | 484 kts | 244° |
| 2026-04-25 13:12 | 10.05639 | 40.27124 | 36025 ft | 485 kts | 244° |
| 2026-04-25 13:12 | 10.03007 | 40.22114 | 36037 ft | 484 kts | 244° |
| 2026-04-25 13:13 | 9.99305 | 40.15067 | 36048 ft | 486 kts | 244° |
| 2026-04-25 13:13 | 9.96106 | 40.08984 | 36087 ft | 485 kts | 244° |
| 2026-04-25 13:14 | 9.92930 | 40.02948 | 36100 ft | 484 kts | 244° |
| 2026-04-25 13:14 | 9.89739 | 39.96885 | 36129 ft | 484 kts | 244° |
| 2026-04-25 13:15 | 9.86557 | 39.90844 | 36189 ft | 484 kts | 244° |
| 2026-04-25 13:15 | 9.83346 | 39.84750 | 36253 ft | 485 kts | 244° |
| 2026-04-25 13:16 | 9.80163 | 39.78712 | 36296 ft | 485 kts | 244° |
| 2026-04-25 13:16 | 9.76961 | 39.72643 | 36335 ft | 486 kts | 244° |
| 2026-04-25 13:17 | 9.73754 | 39.66566 | 36322 ft | 486 kts | 244° |
| 2026-04-25 13:17 | 9.70536 | 39.60473 | 36314 ft | 485 kts | 244° |
| 2026-04-25 13:18 | 9.67326 | 39.54396 | 36313 ft | 485 kts | 244° |
| 2026-04-25 13:18 | 9.64138 | 39.48367 | 36321 ft | 485 kts | 244° |
| 2026-04-25 13:19 | 9.60958 | 39.42355 | 36125 ft | 479 kts | 244° |
| 2026-04-25 13:19 | 9.59365 | 39.39344 | 35405 ft | 477 kts | 244° |
| 2026-04-25 13:19 | 9.58341 | 39.37411 | 35117 ft | 473 kts | 244° |
| 2026-04-25 13:20 | 9.56292 | 39.33541 | 34509 ft | 464 kts | 244° |
| 2026-04-25 13:20 | 9.54767 | 39.30661 | 34006 ft | 458 kts | 244° |
| 2026-04-25 13:20 | 9.53261 | 39.27819 | 33510 ft | 452 kts | 245° |
| 2026-04-25 13:20 | 9.51793 | 39.25048 | 33023 ft | 447 kts | 245° |
| 2026-04-25 13:21 | 9.50322 | 39.22272 | 32528 ft | 442 kts | 245° |
| 2026-04-25 13:21 | 9.48887 | 39.19563 | 32091 ft | 437 kts | 245° |
| 2026-04-25 13:21 | 9.47449 | 39.16851 | 31630 ft | 432 kts | 245° |
| 2026-04-25 13:21 | 9.46037 | 39.14187 | 31159 ft | 429 kts | 245° |
| 2026-04-25 13:22 | 9.44635 | 39.11543 | 30689 ft | 425 kts | 244° |
| 2026-04-25 13:22 | 9.43240 | 39.08912 | 30222 ft | 421 kts | 244° |
| 2026-04-25 13:22 | 9.41868 | 39.06327 | 29759 ft | 418 kts | 244° |
| 2026-04-25 13:23 | 9.39121 | 39.01151 | 28832 ft | 412 kts | 244° |
| 2026-04-25 13:23 | 9.37777 | 38.98620 | 28383 ft | 409 kts | 244° |
| 2026-04-25 13:23 | 9.36438 | 38.96096 | 27930 ft | 406 kts | 244° |
| 2026-04-25 13:23 | 9.35111 | 38.93593 | 27467 ft | 404 kts | 244° |
| 2026-04-25 13:24 | 9.33773 | 38.91070 | 26992 ft | 402 kts | 243° |
| 2026-04-25 13:24 | 9.32467 | 38.88607 | 26526 ft | 400 kts | 243° |
| 2026-04-25 13:24 | 9.31145 | 38.86116 | 26056 ft | 399 kts | 243° |
| 2026-04-25 13:24 | 9.29847 | 38.83670 | 25574 ft | 398 kts | 243° |
| 2026-04-25 13:25 | 9.28527 | 38.81182 | 25082 ft | 396 kts | 243° |
| 2026-04-25 13:25 | 9.27228 | 38.78736 | 24613 ft | 395 kts | 243° |
| 2026-04-25 13:25 | 9.25936 | 38.76304 | 24144 ft | 393 kts | 243° |
| 2026-04-25 13:25 | 9.24642 | 38.73867 | 23657 ft | 392 kts | 243° |
| 2026-04-25 13:26 | 9.23348 | 38.71431 | 23177 ft | 391 kts | 242° |
| 2026-04-25 13:26 | 9.22066 | 38.69020 | 22706 ft | 390 kts | 242° |
| 2026-04-25 13:26 | 9.20796 | 38.66630 | 22240 ft | 389 kts | 242° |
| 2026-04-25 13:26 | 9.19502 | 38.64197 | 21769 ft | 388 kts | 242° |
| 2026-04-25 13:27 | 9.18226 | 38.61796 | 21294 ft | 388 kts | 242° |
| 2026-04-25 13:27 | 9.16951 | 38.59399 | 20823 ft | 387 kts | 242° |
| 2026-04-25 13:27 | 9.15672 | 38.56996 | 20342 ft | 387 kts | 242° |
| 2026-04-25 13:27 | 9.14407 | 38.54617 | 19858 ft | 387 kts | 242° |
| 2026-04-25 13:28 | 9.13133 | 38.52223 | 19383 ft | 386 kts | 242° |
| 2026-04-25 13:28 | 9.12272 | 38.50606 | 19063 ft | 386 kts | 242° |
| 2026-04-25 13:28 | 9.10588 | 38.47442 | 18423 ft | 384 kts | 241° |
| 2026-04-25 13:28 | 9.09136 | 38.45171 | 17920 ft | 382 kts | 230° |
| 2026-04-25 13:29 | 9.07420 | 38.43126 | 17391 ft | 383 kts | 228° |
| 2026-04-25 13:29 | 9.05637 | 38.41134 | 16813 ft | 383 kts | 222° |
| 2026-04-25 13:29 | 9.03547 | 38.39467 | 16226 ft | 383 kts | 210° |
| 2026-04-25 13:30 | 8.98593 | 38.37572 | 15039 ft | 379 kts | 186° |
| 2026-04-25 13:30 | 8.95975 | 38.37433 | 14597 ft | 368 kts | 173° |
| 2026-04-25 13:30 | 8.93537 | 38.37852 | 14332 ft | 349 kts | 159° |
| 2026-04-25 13:31 | 8.89790 | 38.40468 | 13804 ft | 313 kts | 122° |
| 2026-04-25 13:31 | 8.88820 | 38.42375 | 13553 ft | 296 kts | 104° |
| 2026-04-25 13:31 | 8.88329 | 38.44369 | 13295 ft | 282 kts | 97° |
| 2026-04-25 13:31 | 8.88048 | 38.46275 | 13135 ft | 267 kts | 94° |
| 2026-04-25 13:32 | 8.87874 | 38.48093 | 12969 ft | 256 kts | 92° |
| 2026-04-25 13:32 | 8.87739 | 38.49894 | 12783 ft | 258 kts | 91° |
| 2026-04-25 13:32 | 8.87613 | 38.51717 | 12535 ft | 258 kts | 91° |
| 2026-04-25 13:32 | 8.87491 | 38.53507 | 12280 ft | 254 kts | 91° |
| 2026-04-25 13:33 | 8.87371 | 38.55282 | 12029 ft | 254 kts | 91° |
| 2026-04-25 13:33 | 8.87251 | 38.57048 | 11767 ft | 253 kts | 92° |
| 2026-04-25 13:33 | 8.87134 | 38.58828 | 11491 ft | 250 kts | 90° |
| 2026-04-25 13:33 | 8.87246 | 38.59981 | 11306 ft | 247 kts | 74° |
| 2026-04-25 13:34 | 8.88439 | 38.61906 | 10940 ft | 244 kts | 44° |
| 2026-04-25 13:34 | 8.89744 | 38.62999 | 10698 ft | 238 kts | 40° |
| 2026-04-25 13:34 | 8.91054 | 38.63994 | 10450 ft | 232 kts | 39° |
| 2026-04-25 13:34 | 8.92308 | 38.65011 | 10189 ft | 224 kts | 53° |
| 2026-04-25 13:35 | 8.93141 | 38.66304 | 9972 ft | 216 kts | 62° |
| 2026-04-25 13:35 | 8.93825 | 38.67619 | 9749 ft | 210 kts | 65° |
| 2026-04-25 13:35 | 8.94457 | 38.68938 | 9533 ft | 200 kts | 72° |
| 2026-04-25 13:35 | 8.94867 | 38.70209 | 9317 ft | 186 kts | 76° |
| 2026-04-25 13:36 | 8.95209 | 38.71416 | 9129 ft | 173 kts | 74° |
| 2026-04-25 13:36 | 8.95538 | 38.72540 | 8959 ft | 160 kts | 75° |
| 2026-04-25 13:36 | 8.95853 | 38.73610 | 8776 ft | 159 kts | 77° |
| 2026-04-25 13:36 | 8.96160 | 38.74675 | 8565 ft | 157 kts | 75° |
| 2026-04-25 13:37 | 8.96463 | 38.75738 | 8363 ft | 154 kts | 74° |
| 2026-04-25 13:37 | 8.96767 | 38.76767 | 8063 ft | 153 kts | 74° |
| 2026-04-25 13:37 | 8.97079 | 38.77830 | 7797 ft | 157 kts | 74° |
| 2026-04-25 13:37 | 8.97391 | 38.78863 | 7659 ft | 153 kts | 75° |
| 2026-04-25 13:38 | 8.97703 | 38.79893 | 8031 ft | 150 kts | 73° |
| 2026-04-25 13:38 | 8.98034 | 38.80917 | 8285 ft | 161 kts | 73° |
| 2026-04-25 13:38 | 8.98387 | 38.82020 | 8762 ft | 163 kts | 72° |
| 2026-04-25 13:38 | 8.98731 | 38.83081 | 9311 ft | 161 kts | 71° |
| 2026-04-25 13:39 | 8.99024 | 38.84196 | 9813 ft | 172 kts | 81° |
| 2026-04-25 13:39 | 8.99299 | 38.85431 | 10239 ft | 189 kts | 76° |
| 2026-04-25 13:39 | 8.99679 | 38.86774 | 10620 ft | 206 kts | 73° |
| 2026-04-25 13:39 | 9.00109 | 38.88156 | 11056 ft | 211 kts | 72° |
| 2026-04-25 13:40 | 9.00579 | 38.89586 | 11399 ft | 214 kts | 71° |
| 2026-04-25 13:40 | 9.01079 | 38.91035 | 11598 ft | 217 kts | 69° |
| 2026-04-25 13:40 | 9.01584 | 38.92418 | 11764 ft | 215 kts | 69° |
| 2026-04-25 13:40 | 9.02118 | 38.93851 | 11929 ft | 216 kts | 74° |
| 2026-04-25 13:41 | 9.02107 | 38.95357 | 12032 ft | 221 kts | 105° |
| 2026-04-25 13:41 | 9.01234 | 38.96662 | 12101 ft | 230 kts | 137° |
| 2026-04-25 13:41 | 8.99759 | 38.97317 | 12140 ft | 240 kts | 170° |
| 2026-04-25 13:41 | 8.98076 | 38.97132 | 12195 ft | 248 kts | 200° |
| 2026-04-25 13:42 | 8.96561 | 38.96288 | 12320 ft | 248 kts | 211° |
| 2026-04-25 13:42 | 8.95105 | 38.95331 | 12465 ft | 249 kts | 212° |
| 2026-04-25 13:42 | 8.93642 | 38.94371 | 12608 ft | 251 kts | 212° |
| 2026-04-25 13:42 | 8.92194 | 38.93386 | 12741 ft | 252 kts | 222° |
| 2026-04-25 13:43 | 8.91128 | 38.91980 | 12849 ft | 251 kts | 240° |
| 2026-04-25 13:43 | 8.90265 | 38.90427 | 12994 ft | 251 kts | 244° |
| 2026-04-25 13:43 | 8.89621 | 38.88805 | 13123 ft | 251 kts | 253° |
| 2026-04-25 13:43 | 8.89067 | 38.87120 | 13261 ft | 251 kts | 254° |
| 2026-04-25 13:44 | 8.88516 | 38.85453 | 13172 ft | 252 kts | 254° |
| 2026-04-25 13:44 | 8.87954 | 38.83757 | 13008 ft | 251 kts | 254° |
| 2026-04-25 13:44 | 8.87403 | 38.82090 | 12844 ft | 251 kts | 254° |
| 2026-04-25 13:44 | 8.86859 | 38.80426 | 12682 ft | 248 kts | 254° |
| 2026-04-25 13:45 | 8.86427 | 38.78726 | 12477 ft | 249 kts | 263° |
| 2026-04-25 13:45 | 8.86135 | 38.76992 | 12163 ft | 250 kts | 262° |
| 2026-04-25 13:45 | 8.85843 | 38.75265 | 11928 ft | 245 kts | 262° |
| 2026-04-25 13:45 | 8.85559 | 38.73568 | 11760 ft | 246 kts | 262° |
| 2026-04-25 13:46 | 8.85272 | 38.71856 | 11593 ft | 245 kts | 262° |
| 2026-04-25 13:46 | 8.85047 | 38.70237 | 11425 ft | 243 kts | 273° |
| 2026-04-25 13:46 | 8.85237 | 38.68541 | 11226 ft | 244 kts | 281° |
| 2026-04-25 13:46 | 8.85755 | 38.66929 | 10982 ft | 238 kts | 307° |
| 2026-04-25 13:47 | 8.86898 | 38.65762 | 10781 ft | 229 kts | 328° |
| 2026-04-25 13:47 | 8.88265 | 38.65089 | 10586 ft | 211 kts | 356° |
| 2026-04-25 13:47 | 8.89662 | 38.65233 | 10424 ft | 190 kts | 20° |
| 2026-04-25 13:47 | 8.90867 | 38.65631 | 10158 ft | 179 kts | 26° |
| 2026-04-25 13:48 | 8.91893 | 38.66230 | 10043 ft | 172 kts | 44° |
| 2026-04-25 13:48 | 8.92753 | 38.67059 | 9792 ft | 166 kts | 51° |
| 2026-04-25 13:48 | 8.93480 | 38.67956 | 9678 ft | 166 kts | 57° |
| 2026-04-25 13:48 | 8.94137 | 38.68925 | 9580 ft | 166 kts | 63° |
| 2026-04-25 13:49 | 8.94631 | 38.69961 | 9463 ft | 163 kts | 65° |
| 2026-04-25 13:49 | 8.95097 | 38.71009 | 9266 ft | 167 kts | 68° |
| 2026-04-25 13:49 | 8.95569 | 38.72083 | 9031 ft | 168 kts | 70° |
| 2026-04-25 13:49 | 8.95964 | 38.73177 | 8738 ft | 162 kts | 77° |
| 2026-04-25 13:50 | 8.96227 | 38.74265 | 8504 ft | 158 kts | 75° |
| 2026-04-25 13:50 | 8.96517 | 38.75333 | 8192 ft | 157 kts | 69° |
| 2026-04-25 13:50 | 8.96861 | 38.76380 | 7999 ft | 156 kts | 73° |
| 2026-04-25 13:50 | 8.97175 | 38.77465 | 7806 ft | 162 kts | 76° |
| 2026-04-25 13:51 | 8.97489 | 38.78548 | 7643 ft | 158 kts | 73° |
| 2026-04-25 13:51 | 8.97775 | 38.79537 | 7641 ft | 129 kts | 73° |
| 2026-04-25 13:51 | 8.97995 | 38.80283 | 7639 ft | 86 kts | 73° |
| 2026-04-25 13:51 | 8.98095 | 38.80622 | 7632 ft | 23 kts | 72° |
| 2026-04-25 13:52 | 8.98108 | 38.80740 | 7630 ft | 13 kts | 127° |
| 2026-04-25 13:52 | 8.98039 | 38.80730 | 7628 ft | 12 kts | 220° |
| 2026-04-25 13:52 | 8.97961 | 38.80655 | 7625 ft | 18 kts | 229° |
| 2026-04-25 13:52 | 8.97878 | 38.80534 | 7625 ft | 22 kts | 243° |
| 2026-04-25 13:53 | 8.97824 | 38.80375 | 7631 ft | 24 kts | 253° |
| 2026-04-25 13:53 | 8.97772 | 38.80195 | 7635 ft | 28 kts | 254° |
| 2026-04-25 13:53 | 8.97720 | 38.80016 | 7638 ft | 24 kts | 253° |
| 2026-04-25 13:53 | 8.97713 | 38.79894 | 7640 ft | 14 kts | 308° |
| 2026-04-25 13:54 | 8.97787 | 38.79857 | 7643 ft | 10 kts | 342° |
| 2026-04-25 13:54 | 8.97852 | 38.79837 | 7646 ft | 10 kts | 343° |
| 2026-04-25 13:54 | 8.97938 | 38.79812 | 7647 ft | 14 kts | 344° |
| 2026-04-25 13:54 | 8.98051 | 38.79778 | 7647 ft | 18 kts | 343° |
| 2026-04-25 13:55 | 8.98143 | 38.79745 | 7648 ft | 7 kts | 316° |
| 2026-04-25 13:55 | 8.98147 | 38.79699 | 7648 ft | 7 kts | 254° |
| 2026-04-25 13:55 | 8.98140 | 38.79637 | 7646 ft | 10 kts | 291° |
| 2026-04-25 13:55 | 8.98193 | 38.79600 | 7645 ft | 5 kts | 344° |
| 2026-04-25 13:56 | 8.98213 | 38.79594 | 7644 ft | 0 kts | 344° |
| 2026-04-25 13:56 | 8.98216 | 38.79593 | 7644 ft | 0 kts | 344° |
| 2026-04-25 13:56 | 8.98218 | 38.79592 | 7644 ft | 0 kts | 344° |